Time;durP1;ratioP1;P1;durP2;ratioP2;P2;SDS_P1;SDS_P2;PMS_P1;PMS_P2;Temp;Humidity;BMP_temperature;BMP_pressure;BME280_temperature;BME280_humidity;BME280_pressure;Samples;Min_cycle;Max_cycle;Signal;HPM_P1;HPM_P2
2022/05/11 00:01:42;;;;;;;7.68;2.70;;;;;;;16.07;58.78;101158.28;5054024;28;20029;-83
2022/05/11 00:04:09;;;;;;;6.63;2.45;;;;;;;16.07;58.79;101156.34;5054125;28;20088;-83
2022/05/11 00:06:36;;;;;;;7.13;2.60;;;;;;;16.02;58.79;101159.00;5053766;28;20424;-83
2022/05/11 00:09:03;;;;;;;7.83;2.70;;;;;;;15.99;59.33;101154.03;5037649;28;20047;-83
2022/05/11 00:11:29;;;;;;;6.85;2.70;;;;;;;16.00;58.89;101158.41;5054510;28;20462;-83
2022/05/11 00:13:56;;;;;;;4.90;2.60;;;;;;;16.04;59.02;101156.03;5054075;28;20037;-83
2022/05/11 00:16:21;;;;;;;6.97;2.63;;;;;;;16.05;58.60;101146.75;5054896;28;20036;-83
2022/05/11 00:18:47;;;;;;;6.37;2.53;;;;;;;16.06;58.25;101140.19;5055054;28;20037;-83
2022/05/11 00:21:13;;;;;;;4.33;2.60;;;;;;;16.05;58.02;101144.84;5054977;28;20102;-83
2022/05/11 00:23:39;;;;;;;4.28;2.50;;;;;;;16.08;58.26;101147.06;5055370;28;20037;-83
2022/05/11 00:26:05;;;;;;;6.75;2.50;;;;;;;16.08;57.96;101140.78;5054911;28;20087;-83
2022/05/11 00:28:31;;;;;;;6.00;2.10;;;;;;;16.09;58.21;101135.06;5037072;28;20060;-83
2022/05/11 00:30:56;;;;;;;5.55;2.70;;;;;;;16.11;58.15;101132.06;5053855;28;20071;-83
2022/05/11 00:33:22;;;;;;;4.23;2.13;;;;;;;16.11;57.78;101124.69;5036653;28;20045;-83
2022/05/11 00:35:49;;;;;;;3.70;2.23;;;;;;;16.11;57.38;101126.59;5037126;28;20087;-83
2022/05/11 00:38:17;;;;;;;3.53;2.13;;;;;;;16.12;57.68;101125.50;5053880;28;20021;-83
2022/05/11 00:40:46;;;;;;;5.40;2.13;;;;;;;16.11;57.29;101121.94;5054828;28;20041;-83
2022/05/11 00:43:12;;;;;;;9.27;2.22;;;;;;;16.13;57.49;101119.78;5054527;28;20059;-82
2022/05/11 00:45:44;;;;;;;5.60;2.23;;;;;;;16.11;57.45;101113.75;5053385;28;20033;-83
2022/05/11 00:51:00;;;;;;;3.63;2.17;;;;;;;16.12;57.73;101106.34;5055202;28;20032;-83
2022/05/11 00:53:26;;;;;;;3.78;2.28;;;;;;;16.07;57.93;101103.53;5036709;28;20029;-83
2022/05/11 00:55:55;;;;;;;6.03;2.40;;;;;;;16.08;57.65;101099.72;5036725;28;20090;-83
2022/05/11 00:58:30;;;;;;;4.47;2.30;;;;;;;16.08;57.65;101106.03;5052893;28;20025;-83
2022/05/11 01:00:57;;;;;;;4.22;2.15;;;;;;;16.08;58.31;101107.94;5055076;28;20033;-83
2022/05/11 01:03:33;;;;;;;5.07;2.20;;;;;;;16.06;57.80;101099.97;5053188;28;20033;-83
2022/05/11 01:05:59;;;;;;;7.22;1.80;;;;;;;16.06;57.90;101099.97;5053369;28;20034;-82
2022/05/11 01:08:29;;;;;;;6.43;2.20;;;;;;;16.06;57.98;101097.25;5036149;28;20531;-83
2022/05/11 01:10:55;;;;;;;4.85;2.08;;;;;;;16.06;58.19;101089.03;5053122;28;20067;-83
2022/05/11 01:13:23;;;;;;;5.27;1.97;;;;;;;16.03;57.96;101084.03;5037162;28;20443;-83
2022/05/11 01:15:51;;;;;;;3.78;1.75;;;;;;;16.04;57.91;101093.06;5036339;28;20123;-83
2022/05/11 01:18:19;;;;;;;7.65;1.90;;;;;;;16.04;58.38;101085.69;5052562;28;20127;-83
2022/05/11 01:20:47;;;;;;;7.25;2.13;;;;;;;16.04;57.99;101080.22;5052723;28;20049;-83
2022/05/11 01:23:32;;;;;;;6.82;1.70;;;;;;;16.04;57.76;101079.41;5036768;28;20481;-83
2022/05/11 01:25:59;;;;;;;4.13;2.00;;;;;;;16.00;58.79;101080.97;5052721;28;20029;-83
2022/05/11 01:28:31;;;;;;;8.38;2.05;;;;;;;15.87;59.13;101073.88;5052644;28;20041;-83
2022/05/11 01:31:06;;;;;;;3.92;1.58;;;;;;;15.80;59.01;101071.31;5053157;28;20116;-83
2022/05/11 01:33:33;;;;;;;4.88;1.70;;;;;;;15.80;59.12;101084.97;5054692;28;20449;-83
2022/05/11 01:36:27;;;;;;;2.97;1.70;;;;;;;15.85;59.06;101076.03;5036211;28;20025;-83
2022/05/11 01:38:56;;;;;;;4.40;1.77;;;;;;;15.88;59.40;101079.09;5052869;28;20055;-83
2022/05/11 01:41:49;;;;;;;4.88;1.83;;;;;;;15.91;58.72;101083.25;5053818;28;20082;-83
2022/05/11 01:44:19;;;;;;;5.10;1.90;;;;;;;15.92;59.04;101082.19;5053703;28;20112;-83
2022/05/11 01:46:48;;;;;;;4.95;2.03;;;;;;;15.93;58.96;101081.13;5053237;28;20123;-83
2022/05/11 01:49:14;;;;;;;4.53;2.05;;;;;;;15.92;58.96;101079.47;5052589;28;20040;-83
2022/05/11 01:51:40;;;;;;;4.60;1.87;;;;;;;15.91;58.99;101073.13;5052386;28;20381;-83
2022/05/11 01:54:05;;;;;;;6.85;1.95;;;;;;;15.90;59.17;101073.38;5052368;28;20055;-83
2022/05/11 01:56:31;;;;;;;4.30;2.00;;;;;;;15.90;59.15;101073.38;5052588;28;20079;-83
2022/05/11 01:58:59;;;;;;;6.18;2.58;;;;;;;15.91;59.16;101069.56;5035893;28;20112;-83
2022/05/11 02:01:29;;;;;;;6.37;2.00;;;;;;;15.86;59.00;101067.59;5052246;28;20040;-83
2022/05/11 02:03:55;;;;;;;5.18;1.98;;;;;;;15.86;59.19;101067.59;5053496;28;20021;-83
2022/05/11 02:09:06;;;;;;;3.97;1.70;;;;;;;15.85;59.35;101067.81;5052578;28;20051;-83
2022/05/11 02:11:32;;;;;;;5.78;2.00;;;;;;;15.88;59.41;101072.81;5052169;28;20033;-83
2022/05/11 02:13:58;;;;;;;4.87;2.00;;;;;;;15.86;59.34;101059.38;5052166;28;20036;-82
2022/05/11 02:16:24;;;;;;;6.90;1.80;;;;;;;15.86;59.45;101056.63;5053487;28;20076;-83
2022/05/11 02:18:50;;;;;;;4.95;1.90;;;;;;;15.86;59.23;101059.38;5052201;28;20123;-83
2022/05/11 02:21:15;;;;;;;3.57;2.03;;;;;;;15.86;59.50;101062.13;5052600;28;20381;-82
2022/05/11 02:23:40;;;;;;;3.33;1.60;;;;;;;15.85;59.34;101065.09;5018679;28;20441;-83
2022/05/11 02:26:09;;;;;;;4.57;1.80;;;;;;;15.85;59.40;101056.88;5052611;28;20028;-82
2022/05/11 02:28:35;;;;;;;6.73;1.87;;;;;;;15.83;59.71;101061.78;5052038;28;20286;-83
2022/05/11 02:31:00;;;;;;;4.32;2.00;;;;;;;15.82;59.62;101060.94;5055151;28;20029;-83
2022/05/11 02:33:26;;;;;;;7.67;2.10;;;;;;;15.83;59.59;101053.56;5056109;28;20035;-83
2022/05/11 02:35:53;;;;;;;4.32;2.00;;;;;;;15.83;59.54;101050.84;5055892;28;20037;-83
2022/05/11 02:38:27;;;;;;;3.03;1.83;;;;;;;15.79;59.39;101054.03;5055873;28;20035;-83
2022/05/11 02:40:56;;;;;;;6.55;2.17;;;;;;;15.80;60.05;101057.63;5056418;28;20461;-83
2022/05/11 02:43:22;;;;;;;3.90;1.77;;;;;;;15.78;59.75;101057.88;5055776;28;20091;-83
2022/05/11 02:45:48;;;;;;;5.75;1.90;;;;;;;15.77;59.21;101055.34;5055749;28;20037;-83
2022/05/11 02:48:17;;;;;;;3.90;1.80;;;;;;;15.76;59.34;101057.25;5039153;28;20035;-83
2022/05/11 02:50:50;;;;;;;2.75;1.70;;;;;;;15.74;59.88;101048.47;5056643;28;20550;-83
2022/05/11 02:53:16;;;;;;;4.20;2.58;;;;;;;15.76;59.88;101050.94;5055784;28;20025;-83
2022/05/11 02:55:44;;;;;;;4.95;1.50;;;;;;;15.77;59.57;101058.09;5056151;28;20033;-83
2022/05/11 02:58:11;;;;;;;4.47;1.90;;;;;;;15.74;59.86;101045.72;5056866;28;20043;-83
2022/05/11 03:00:38;;;;;;;5.87;2.33;;;;;;;15.72;59.82;101049.78;5056026;28;20059;-83
2022/05/11 03:03:05;;;;;;;5.63;2.03;;;;;;;15.73;60.04;101051.44;5055393;28;20484;-83
2022/05/11 03:05:31;;;;;;;4.65;1.70;;;;;;;15.72;59.89;101044.31;5022345;28;20040;-83
2022/05/11 03:07:56;;;;;;;5.32;1.55;;;;;;;15.72;59.70;101045.16;5055614;28;20029;-83
2022/05/11 03:10:22;;;;;;;6.23;1.93;;;;;;;15.72;60.02;101041.56;5055535;28;20420;-83
2022/05/11 03:12:48;;;;;;;3.88;1.70;;;;;;;15.69;60.19;101042.06;5055175;28;20055;-83
2022/05/11 03:15:15;;;;;;;5.70;2.00;;;;;;;15.65;60.31;101030.78;5054933;28;20065;-83
2022/05/11 03:17:41;;;;;;;6.57;1.80;;;;;;;15.67;60.43;101033.28;5055062;28;20029;-83
2022/05/11 03:20:08;;;;;;;6.85;1.92;;;;;;;15.66;60.56;101028.88;5056607;28;20090;-83
2022/05/11 03:22:34;;;;;;;4.13;1.70;;;;;;;15.63;60.44;101024.72;5056018;28;20043;-83
2022/05/11 03:24:59;;;;;;;4.40;1.77;;;;;;;15.63;60.38;101024.72;5055180;28;20033;-83
2022/05/11 03:27:25;;;;;;;7.23;2.10;;;;;;;15.63;60.30;101023.91;5055207;28;20029;-83
2022/05/11 03:29:51;;;;;;;7.93;1.60;;;;;;;15.60;61.03;101017.00;5055696;28;20029;-83
2022/05/11 03:35:01;;;;;;;4.17;1.57;;;;;;;15.57;60.78;101015.56;5055756;28;20543;-83
2022/05/11 03:37:27;;;;;;;3.20;1.70;;;;;;;15.55;60.79;101015.00;5038203;28;20041;-83
2022/05/11 03:39:52;;;;;;;6.40;1.70;;;;;;;15.53;60.68;101013.59;5038208;28;20500;-83
2022/05/11 03:42:20;;;;;;;4.20;1.60;;;;;;;15.51;61.05;101011.09;5054613;28;20021;-83
2022/05/11 03:44:45;;;;;;;3.72;1.95;;;;;;;15.52;60.78;101011.94;5055830;28;20025;-83
2022/05/11 03:47:11;;;;;;;7.30;2.07;;;;;;;15.50;60.87;101008.59;5054474;28;20493;-83
2022/05/11 03:49:37;;;;;;;4.07;1.87;;;;;;;15.46;61.11;100997.34;5055504;28;20025;-83
2022/05/11 03:52:03;;;;;;;4.40;1.90;;;;;;;15.46;61.06;101004.69;5054764;28;20033;-83
2022/05/11 03:54:29;;;;;;;6.78;1.70;;;;;;;15.44;61.07;101002.19;5037769;28;20393;-83
2022/05/11 03:56:54;;;;;;;4.32;1.92;;;;;;;15.40;61.52;100998.31;5056503;28;20029;-83
2022/05/11 03:59:20;;;;;;;4.80;2.00;;;;;;;15.32;61.32;101001.44;5054643;28;20033;-83
2022/05/11 04:01:45;;;;;;;3.33;1.80;;;;;;;15.32;61.87;101010.44;5037975;28;20025;-83
2022/05/11 04:04:11;;;;;;;3.57;1.60;;;;;;;15.30;61.84;101003.59;5054260;28;20021;-83
2022/05/11 04:06:36;;;;;;;5.00;1.83;;;;;;;15.31;61.99;101007.97;5054033;28;20044;-83
2022/05/11 04:09:02;;;;;;;5.83;2.00;;;;;;;15.25;62.18;100993.34;5054437;28;20037;-83
2022/05/11 04:11:29;;;;;;;4.65;1.85;;;;;;;15.20;62.24;101004.22;5054451;28;20114;-83
2022/05/11 04:13:56;;;;;;;4.80;2.00;;;;;;;15.14;62.27;100996.97;5054107;28;20028;-83
2022/05/11 04:16:23;;;;;;;4.70;1.83;;;;;;;15.09;62.67;100998.53;5055043;28;20055;-83
2022/05/11 04:18:48;;;;;;;4.25;1.92;;;;;;;15.01;63.24;100996.16;5053721;28;20087;-83
2022/05/11 04:21:14;;;;;;;7.55;1.88;;;;;;;14.94;63.25;100990.03;5054591;28;20140;-83
2022/05/11 04:23:41;;;;;;;3.07;1.77;;;;;;;14.90;63.43;101003.31;5054670;28;20063;-83
2022/05/11 04:26:08;;;;;;;4.03;1.33;;;;;;;14.87;63.56;101001.06;5053834;28;20291;-83
2022/05/11 04:28:33;;;;;;;5.15;1.40;;;;;;;14.86;63.64;100996.69;5054024;28;20478;-83
2022/05/11 04:31:01;;;;;;;3.57;1.67;;;;;;;14.86;63.91;101004.06;5055062;28;20167;-83
2022/05/11 04:33:27;;;;;;;4.37;1.77;;;;;;;14.83;64.18;100999.88;5037393;28;20636;-83
2022/05/11 04:35:52;;;;;;;4.38;2.10;;;;;;;14.80;64.40;100999.56;5054017;28;20094;-82
2022/05/11 04:38:17;;;;;;;4.50;1.40;;;;;;;14.73;64.46;101005.13;5037045;28;20495;-82
2022/05/11 04:40:43;;;;;;;4.03;2.03;;;;;;;14.69;64.50;100999.31;5053420;28;20086;-83
2022/05/11 04:43:10;;;;;;;7.35;1.73;;;;;;;14.67;64.62;101000.63;5053473;28;20025;-82
2022/05/11 04:45:39;;;;;;;3.83;2.05;;;;;;;14.65;64.92;101002.78;5054654;28;20155;-83
2022/05/11 04:48:05;;;;;;;4.23;1.80;;;;;;;14.62;65.05;100995.88;5053370;28;20071;-83
2022/05/11 04:50:30;;;;;;;3.88;1.40;;;;;;;14.62;65.01;101003.25;5036666;28;20120;-83
2022/05/11 04:52:56;;;;;;;3.80;1.50;;;;;;;14.63;65.22;100993.97;5052740;28;20029;-83
2022/05/11 04:55:21;;;;;;;5.63;1.98;;;;;;;14.63;65.34;101008.47;5053153;28;20068;-83
2022/05/11 04:57:48;;;;;;;4.43;1.97;;;;;;;14.63;65.50;100992.09;5053567;28;20432;-83
2022/05/11 05:00:14;;;;;;;7.63;2.33;;;;;;;14.68;65.14;101000.38;5054416;28;20033;-83
2022/05/11 05:02:40;;;;;;;10.90;1.80;;;;;;;14.68;65.54;100996.84;5054458;28;20032;-83
2022/05/11 05:05:08;;;;;;;3.53;1.77;;;;;;;14.74;65.39;101001.34;5054369;28;20025;-83
2022/05/11 05:07:37;;;;;;;4.25;2.10;;;;;;;14.78;65.07;101002.53;5020570;28;20036;-83
2022/05/11 05:10:04;;;;;;;6.80;2.00;;;;;;;14.80;65.74;101003.09;5053256;28;20039;-82
2022/05/11 05:12:30;;;;;;;3.97;1.70;;;;;;;14.90;65.03;101010.69;5053066;28;20543;-83
2022/05/11 05:14:56;;;;;;;4.75;2.20;;;;;;;14.95;65.01;101010.78;5053366;28;20025;-82
2022/05/11 05:17:27;;;;;;;7.85;2.22;;;;;;;14.99;64.65;100994.78;5053324;28;20445;-82
2022/05/11 05:19:53;;;;;;;9.97;2.80;;;;;;;15.05;64.74;101002.81;5052609;28;20061;-82
2022/05/11 05:22:19;;;;;;;3.20;2.13;;;;;;;15.08;65.06;101006.97;5052643;28;20550;-82
2022/05/11 05:24:45;;;;;;;4.05;2.15;;;;;;;15.12;64.35;101008.16;5051683;28;20029;-82
2022/05/11 05:27:12;;;;;;;7.90;2.30;;;;;;;15.17;64.60;101024.66;5054094;28;20389;-83
2022/05/11 05:32:23;;;;;;;5.85;2.70;;;;;;;15.22;63.97;101024.75;5053762;28;20098;-83
2022/05/11 05:34:48;;;;;;;5.90;2.88;;;;;;;15.26;64.00;101022.34;5052326;28;20033;-82
2022/05/11 05:37:16;;;;;;;6.53;2.43;;;;;;;15.25;63.99;101012.50;5019456;28;20132;-82
2022/05/11 05:39:42;;;;;;;7.57;2.70;;;;;;;15.31;64.13;101013.44;5052283;28;20037;-83
2022/05/11 05:42:09;;;;;;;6.07;2.67;;;;;;;15.31;63.62;101008.81;5035762;28;20121;-83
2022/05/11 05:44:37;;;;;;;14.03;2.93;;;;;;;15.34;63.97;101019.25;5052175;28;20291;-82
2022/05/11 05:47:06;;;;;;;8.20;2.45;;;;;;;15.35;63.43;101007.22;5052213;28;20135;-83
2022/05/11 05:49:32;;;;;;;7.47;2.40;;;;;;;15.37;64.21;101024.25;5053021;28;20040;-82
2022/05/11 05:51:59;;;;;;;5.67;2.50;;;;;;;15.42;63.13;101018.03;5053680;28;20033;-82
2022/05/11 05:54:25;;;;;;;7.82;2.30;;;;;;;15.46;63.28;101023.84;5035789;28;20037;-82
2022/05/11 05:56:51;;;;;;;7.07;2.55;;;;;;;15.43;63.46;101017.78;5035527;28;20393;-82
2022/05/11 05:59:18;;;;;;;6.20;2.03;;;;;;;15.50;62.15;101016.81;5053418;28;20029;-82
2022/05/11 06:01:43;;;;;;;6.07;1.95;;;;;;;15.50;62.16;101027.75;5035600;28;20132;-83
2022/05/11 06:04:09;;;;;;;5.50;1.73;;;;;;;15.49;62.17;101026.94;5035298;28;20137;-82
2022/05/11 06:06:35;;;;;;;6.93;1.93;;;;;;;15.53;61.91;101030.84;5054651;28;20025;-82
2022/05/11 06:09:01;;;;;;;4.25;1.95;;;;;;;15.52;62.04;101025.63;5057538;28;20037;-81
2022/05/11 06:11:26;;;;;;;5.97;1.50;;;;;;;15.55;62.29;101027.84;5039507;28;20029;-82
2022/05/11 06:13:51;;;;;;;5.80;1.80;;;;;;;15.59;60.99;101024.38;5056041;28;20086;-81
2022/05/11 06:16:17;;;;;;;4.43;1.67;;;;;;;15.60;61.34;101025.22;5039513;28;20029;-82
2022/05/11 06:18:44;;;;;;;10.00;1.80;;;;;;;15.66;60.98;101035.16;5038482;28;20044;-81
2022/05/11 06:21:11;;;;;;;2.40;1.50;;;;;;;15.69;59.68;101023.72;5056049;28;20025;-82
2022/05/11 06:23:37;;;;;;;7.72;1.67;;;;;;;15.71;60.23;101020.78;5055841;28;20372;-82
2022/05/11 06:26:03;;;;;;;8.93;1.80;;;;;;;15.78;59.63;101016.00;5055401;28;20171;-82
2022/05/11 06:28:28;;;;;;;8.15;1.83;;;;;;;15.82;58.72;101011.69;5038818;28;20127;-82
2022/05/11 06:30:54;;;;;;;6.47;1.30;;;;;;;15.81;59.15;101004.59;5055534;28;20028;-82
2022/05/11 06:33:19;;;;;;;10.93;1.43;;;;;;;15.85;58.48;101013.94;5055743;28;20531;-82
2022/05/11 06:35:45;;;;;;;10.77;1.47;;;;;;;15.88;59.22;101010.69;5038910;28;20029;-82
2022/05/11 06:38:11;;;;;;;3.37;1.17;;;;;;;15.95;58.29;101008.63;5055758;28;20631;-82
2022/05/11 06:40:37;;;;;;;7.03;1.25;;;;;;;16.03;58.39;101017.53;5055323;28;20496;-82
2022/05/11 06:43:04;;;;;;;4.35;1.50;;;;;;;16.08;57.22;101012.16;5055809;28;20090;-82
2022/05/11 06:45:30;;;;;;;3.63;1.40;;;;;;;16.08;57.38;101010.22;5039510;28;20420;-82
2022/05/11 06:47:56;;;;;;;3.35;1.40;;;;;;;16.15;57.70;101001.88;5038893;28;20041;-83
2022/05/11 06:50:24;;;;;;;3.03;1.47;;;;;;;16.17;56.98;101004.34;5057009;28;20576;-82
2022/05/11 06:52:49;;;;;;;3.97;1.30;;;;;;;16.25;56.71;101012.13;5055394;28;20457;-82
2022/05/11 07:00:48;;;;;;;5.10;1.55;;;;;;;16.37;56.92;101001.09;5056277;28;20080;-82
2022/05/11 07:03:14;;;;;;;5.60;1.73;;;;;;;16.43;56.10;101005.56;5038763;28;20111;-82
2022/05/11 07:05:41;;;;;;;5.53;1.90;;;;;;;16.43;56.05;101003.66;5055731;28;20555;-82
2022/05/11 07:08:08;;;;;;;5.73;1.90;;;;;;;16.43;56.31;101017.38;5055166;28;20056;-82
2022/05/11 07:12:17;;;;;;;11.02;2.17;;;;;;;16.46;55.94;101005.91;5055195;28;20491;-82
2022/05/11 07:13:30;;;;;;;5.22;1.92;;;;;;;16.46;55.94;101005.91;5055150;28;20045;-82
2022/05/11 07:15:56;;;;;;;5.20;1.67;;;;;;;16.55;56.44;101013.69;5056420;28;20075;-82
2022/05/11 07:18:21;;;;;;;10.23;1.87;;;;;;;16.63;56.06;101010.53;5056306;28;20033;-82
2022/05/11 07:20:46;;;;;;;5.17;1.80;;;;;;;16.67;55.35;101007.03;5054636;28;20045;-82
2022/05/11 07:23:12;;;;;;;3.77;1.70;;;;;;;16.78;55.54;101005.25;5038326;28;20564;-82
2022/05/11 07:25:38;;;;;;;3.90;1.60;;;;;;;17.03;55.18;101006.69;5056071;28;20120;-82
2022/05/11 07:28:03;;;;;;;5.17;1.90;;;;;;;17.17;53.26;101024.44;5038685;28;20405;-82
2022/05/11 07:30:35;;;;;;;7.00;1.77;;;;;;;17.10;53.14;101012.00;5054844;28;20095;-82
2022/05/11 07:33:01;;;;;;;4.03;1.60;;;;;;;17.10;52.70;101012.81;5056114;28;20469;-82
2022/05/11 07:35:28;;;;;;;4.93;1.50;;;;;;;16.96;53.40;101009.66;5055743;28;20412;-82
2022/05/11 07:37:54;;;;;;;6.03;1.80;;;;;;;17.04;52.83;101013.00;5056192;28;20060;-82
2022/05/11 07:40:21;;;;;;;9.85;1.70;;;;;;;17.06;52.05;101010.84;5055848;28;20024;-82
2022/05/11 07:42:47;;;;;;;9.23;1.70;;;;;;;17.00;51.91;101009.94;5038027;28;20033;-82
2022/05/11 07:45:14;;;;;;;7.88;1.60;;;;;;;17.01;51.92;101019.84;5055778;28;20534;-82
2022/05/11 07:47:40;;;;;;;9.33;1.30;;;;;;;17.07;51.83;101010.59;5054485;28;20420;-82
2022/05/11 07:50:07;;;;;;;6.15;1.63;;;;;;;17.03;51.45;101014.91;5038474;28;20033;-82
2022/05/11 07:52:32;;;;;;;5.72;1.40;;;;;;;17.04;51.13;101016.59;5055345;28;20027;-82
2022/05/11 07:54:58;;;;;;;6.53;1.63;;;;;;;17.15;50.58;101026.56;5055905;28;20029;-82
2022/05/11 08:00:08;;;;;;;3.35;1.50;;;;;;;17.33;51.20;101025.44;5054859;28;20048;-82
2022/05/11 08:02:36;;;;;;;7.35;1.73;;;;;;;17.35;51.28;101022.44;5055468;28;20063;-82
2022/05/11 08:05:06;;;;;;;11.52;1.80;;;;;;;17.36;50.23;101019.44;5054827;28;20028;-82
2022/05/11 08:07:46;;;;;;;8.17;1.83;;;;;;;17.38;51.32;101015.59;5054141;28;20115;-82
2022/05/11 08:10:25;;;;;;;5.78;1.98;;;;;;;17.57;50.81;101022.41;5053752;28;20032;-82
2022/05/11 08:12:54;;;;;;;11.25;1.95;;;;;;;17.86;50.41;101019.41;5054615;28;20083;-82
2022/05/11 08:15:22;;;;;;;5.57;1.65;;;;;;;18.18;49.05;101015.88;5054257;28;20028;-82
2022/05/11 08:17:49;;;;;;;4.13;1.58;;;;;;;18.17;48.49;101026.03;5054166;28;20040;-82
2022/05/11 08:20:21;;;;;;;9.13;2.30;;;;;;;18.01;48.97;101008.59;5053972;28;20116;-82
2022/05/11 08:22:47;;;;;;;5.03;1.80;;;;;;;18.00;49.66;101019.84;5054920;28;20025;-82
2022/05/11 08:25:23;;;;;;;6.15;1.90;;;;;;;17.96;49.81;101016.78;5037329;28;20025;-82
2022/05/11 08:27:50;;;;;;;9.23;1.92;;;;;;;17.86;49.31;101012.00;5053543;28;20074;-82
2022/05/11 08:35:49;;;;;;;6.10;1.85;;;;;;;17.87;48.87;100993.63;5054350;28;20465;-82
2022/05/11 08:38:16;;;;;;;5.90;2.08;;;;;;;17.81;49.10;100997.41;5053424;28;20072;-82
2022/05/11 08:41:05;;;;;;;7.82;2.25;;;;;;;17.74;50.05;101005.03;5053792;28;20134;-82
2022/05/11 08:43:34;;;;;;;9.88;2.13;;;;;;;17.76;49.80;101011.06;5054354;28;20067;-82
2022/05/11 08:46:23;;;;;;;6.83;2.50;;;;;;;17.80;50.52;101013.03;5053210;28;20373;-82
2022/05/11 08:49:04;;;;;;;7.90;2.17;;;;;;;17.77;50.29;101016.28;5053539;28;20029;-82
2022/05/11 08:51:45;;;;;;;7.38;1.90;;;;;;;17.73;50.04;101011.59;5053323;28;20424;-82
2022/05/11 08:54:46;;;;;;;3.65;2.10;;;;;;;17.67;50.49;100995.09;5053632;28;20116;-82
2022/05/11 08:57:17;;;;;;;9.65;2.45;;;;;;;17.67;50.50;100991.50;5042289;28;20037;-82
2022/05/11 08:59:43;;;;;;;5.33;2.57;;;;;;;17.66;50.52;100998.91;5055454;28;20036;-82
2022/05/11 09:02:19;;;;;;;7.30;2.65;;;;;;;17.75;50.74;101007.50;5053262;28;20124;-82
2022/05/11 09:04:58;;;;;;;10.50;2.55;;;;;;;17.85;50.38;100993.88;5052989;28;20116;-82
2022/05/11 09:07:24;;;;;;;6.13;2.03;;;;;;;17.94;49.97;100993.41;5054580;28;20036;-82
2022/05/11 09:09:54;;;;;;;7.43;2.40;;;;;;;18.00;50.17;100989.66;5054004;28;20064;-82
2022/05/11 09:12:20;;;;;;;11.33;2.20;;;;;;;18.15;49.94;100988.94;5054231;28;20040;-82
2022/05/11 09:14:50;;;;;;;9.38;2.75;;;;;;;18.28;49.78;100990.38;5053414;28;20449;-82
2022/05/11 09:17:34;;;;;;;6.85;2.42;;;;;;;18.59;49.03;100992.25;5054567;28;20506;-82
2022/05/11 09:20:07;;;;;;;11.27;2.28;;;;;;;18.65;48.65;100984.06;5054347;28;20049;-82
2022/05/11 09:22:38;;;;;;;6.68;2.55;;;;;;;18.69;48.77;100980.50;5052624;28;20094;-82
2022/05/11 09:25:29;;;;;;;6.67;2.03;;;;;;;19.03;49.01;100987.53;5054432;28;20060;-82
2022/05/11 09:28:13;;;;;;;8.02;2.33;;;;;;;19.00;48.03;100991.69;5054493;28;20039;-82
2022/05/11 09:30:42;;;;;;;11.57;2.40;;;;;;;18.99;47.76;100978.19;5052596;28;20025;-82
2022/05/11 09:33:23;;;;;;;11.23;2.30;;;;;;;19.22;47.38;100985.13;5036388;28;20033;-82
2022/05/11 09:35:49;;;;;;;9.93;2.50;;;;;;;19.23;47.35;100968.38;5054184;28;20063;-81
2022/05/11 09:38:17;;;;;;;7.27;2.37;;;;;;;19.37;47.29;100973.34;5035905;28;20041;-83
2022/05/11 09:40:53;;;;;;;11.32;2.92;;;;;;;19.38;46.48;100980.50;5053100;28;20036;-82
2022/05/11 09:43:41;;;;;;;5.90;2.25;;;;;;;19.50;46.65;100969.25;5052406;28;20033;-82
2022/05/11 09:46:22;;;;;;;6.10;2.10;;;;;;;19.37;46.78;100970.59;5044040;28;20041;-82
2022/05/11 09:49:16;;;;;;;6.60;1.90;;;;;;;19.36;46.88;100978.03;5053581;28;20507;-82
2022/05/11 09:51:54;;;;;;;8.50;2.65;;;;;;;19.39;46.89;100974.75;5053769;28;20021;-82
2022/05/11 09:54:38;;;;;;;8.43;2.55;;;;;;;19.33;46.97;100964.00;5052238;28;20032;-83
2022/05/11 09:57:17;;;;;;;7.72;2.13;;;;;;;19.42;47.43;100965.13;5054014;28;20036;-82
2022/05/11 09:59:51;;;;;;;9.70;2.60;;;;;;;19.49;46.75;100957.44;5053572;28;20028;-82
2022/05/11 10:02:36;;;;;;;11.98;2.65;;;;;;;19.45;46.88;100959.06;5052494;28;20377;-82
2022/05/11 10:05:06;;;;;;;8.68;2.70;;;;;;;19.39;47.11;100969.25;5052273;28;20036;-82
2022/05/11 10:07:41;;;;;;;5.80;2.38;;;;;;;19.31;47.59;100963.44;5053221;28;20033;-82
2022/05/11 10:10:17;;;;;;;6.30;2.80;;;;;;;19.40;47.45;100976.41;5053456;28;20025;-82
2022/05/11 10:12:44;;;;;;;11.53;2.40;;;;;;;19.58;47.09;100968.72;5052003;28;20041;-82
2022/05/11 10:24:29;;;;;;;10.10;2.63;;;;;;;20.06;46.44;100954.72;5053408;28;20121;-82
2022/05/11 10:27:09;;;;;;;12.60;3.03;;;;;;;20.13;45.67;100953.34;5053546;28;20029;-82
2022/05/11 10:29:41;;;;;;;6.38;2.30;;;;;;;20.21;45.15;100960.25;5051723;28;20025;-82
2022/05/11 10:32:13;;;;;;;7.88;2.58;;;;;;;20.03;46.00;100949.78;5051966;28;20029;-82
2022/05/11 10:35:32;;;;;;;8.90;2.80;;;;;;;19.86;45.93;100948.13;5052219;28;20087;-82
2022/05/11 10:38:12;;;;;;;7.88;2.20;;;;;;;20.02;46.12;100945.38;4975375;28;20030;-83
2022/05/11 10:40:56;;;;;;;9.80;2.40;;;;;;;20.27;45.31;100955.53;4991671;28;20081;-82
2022/05/11 10:43:33;;;;;;;8.38;2.45;;;;;;;20.34;44.78;100909.22;5026488;28;20366;-82
2022/05/11 10:46:09;;;;;;;12.00;2.80;;;;;;;20.33;44.07;100930.44;5051921;28;20033;-82
2022/05/11 10:49:14;;;;;;;9.98;2.80;;;;;;;20.42;44.69;100933.47;5051511;28;20040;-82
2022/05/11 10:51:58;;;;;;;9.07;2.22;;;;;;;20.63;43.96;100919.63;5052884;28;20021;-82
2022/05/11 10:54:42;;;;;;;8.53;3.03;;;;;;;20.85;44.85;100927.56;5056057;28;20052;-82
2022/05/11 10:57:42;;;;;;;8.32;2.88;;;;;;;20.94;43.82;100922.28;5056050;28;20470;-82
2022/05/11 11:00:14;;;;;;;9.43;2.50;;;;;;;21.09;43.14;100944.25;5055447;28;20024;-82
2022/05/11 11:02:57;;;;;;;9.02;2.50;;;;;;;21.15;42.90;100921.03;5056604;28;20354;-82
2022/05/11 11:05:23;;;;;;;10.30;2.65;;;;;;;21.32;42.59;100914.34;5055533;28;20033;-82
2022/05/11 11:08:04;;;;;;;8.87;2.73;;;;;;;21.54;41.60;100922.22;5056213;28;20048;-82
2022/05/11 11:10:44;;;;;;;7.63;2.83;;;;;;;21.66;41.24;100906.09;5055243;28;20116;-82
2022/05/11 11:13:37;;;;;;;8.93;2.90;;;;;;;22.13;41.14;100909.28;5055291;28;20056;-82
2022/05/11 11:16:05;;;;;;;9.80;2.47;;;;;;;24.29;37.87;100902.59;5055247;28;20036;-83
2022/05/11 11:18:39;;;;;;;8.07;2.80;;;;;;;25.37;35.60;100920.59;5055765;28;20025;-82
2022/05/11 11:21:08;;;;;;;6.50;2.58;;;;;;;26.16;32.92;100896.13;5055259;28;20385;-82
2022/05/11 11:23:40;;;;;;;8.15;2.80;;;;;;;26.26;33.07;100892.22;5054811;28;20056;-83
2022/05/11 11:26:09;;;;;;;9.83;3.23;;;;;;;28.03;30.73;100892.88;5055081;28;20056;-82
2022/05/11 11:28:40;;;;;;;5.95;2.30;;;;;;;29.14;29.07;100890.97;5055086;28;20033;-82
2022/05/11 11:31:15;;;;;;;9.90;2.63;;;;;;;28.73;28.99;100888.97;5054917;28;20036;-82
2022/05/11 11:33:52;;;;;;;7.85;2.50;;;;;;;29.97;28.67;100887.59;5054852;28;20032;-82
2022/05/11 11:36:26;;;;;;;10.27;2.90;;;;;;;30.91;24.52;100902.66;5055298;28;20090;-82
2022/05/11 11:38:53;;;;;;;6.43;2.63;;;;;;;31.31;24.50;100885.06;5055052;28;20044;-82
2022/05/11 11:41:28;;;;;;;8.65;2.70;;;;;;;32.23;23.55;100875.94;5038295;28;20116;-82
2022/05/11 11:44:12;;;;;;;5.78;3.05;;;;;;;32.64;22.69;100868.94;5055085;28;20116;-82
2022/05/11 11:46:44;;;;;;;6.85;2.70;;;;;;;32.72;22.22;100841.00;5054970;28;20092;-83
2022/05/11 11:49:18;;;;;;;5.45;2.60;;;;;;;31.77;23.15;100857.53;5054721;28;20113;-82
2022/05/11 11:51:50;;;;;;;9.03;2.60;;;;;;;32.43;22.85;100874.03;5054291;28;20043;-83
2022/05/11 11:54:37;;;;;;;8.60;2.83;;;;;;;33.07;22.35;100879.50;5055663;28;20033;-82
2022/05/11 11:57:25;;;;;;;5.03;2.33;;;;;;;32.07;23.17;100871.13;5054731;28;20037;-82
2022/05/11 11:59:59;;;;;;;7.28;3.30;;;;;;;32.21;22.22;100853.06;5055287;28;20465;-82
2022/05/11 12:02:42;;;;;;;12.45;2.97;;;;;;;32.92;22.74;100848.28;5054484;28;20028;-82
2022/05/11 12:05:08;;;;;;;6.33;2.40;;;;;;;34.44;20.61;100857.53;5054071;28;20139;-83
2022/05/11 12:16:19;;;;;;;7.32;2.72;;;;;;;33.37;20.89;100829.16;5055599;28;20120;-83
2022/05/11 12:18:45;;;;;;;5.73;2.60;;;;;;;33.66;20.30;100836.13;5053482;28;20064;-83
2022/05/11 12:21:24;;;;;;;9.23;2.95;;;;;;;34.11;20.84;100828.06;5054402;28;20040;-82